メインページ
METAR-TAF:

METAR-TAF

空港 :

Fort Drum, ニューヨーク, アメリカ合衆国

緯度: 44-03N, 経度: 075-44W, 海抜: 207m

現時点の気象観測

当レポートは9分前の15:56(UTC)に作成
南東の風 10kt
気温 -11°C
湿度 56%
気圧 1025 hPa
視程: 16.1km
高度6000ftの千切れ雲あり
高度10000ftの曇り

METAR: KGTB 181556Z AUTO 13010KT 10SM BKN060 OVC100 M11/M18 A3026 RMK AO2 PRESFR SLP264 T11101181 $

時間: 11:05 (16:05 UTC)

予報

当レポートは35時間11分前の04:54(UTC)に作成
予報は17日の 04時(UTC)から 18日の 07時(UTC)まで有効
の風 12kt
視程: 8000m
高度700ftの千切れ雲あり
高度2000ftの曇り
小雪
17日の 07時(UTC)から 17日の 08時(UTC)まで徐々に
北/北西の風 12kt
視程10km以上
高度5000ftの雲は散在している
17日の 15時(UTC)から 17日の 16時(UTC)まで徐々に
北西の風 6kt
視程: 2105m
高度15000ftの雲はほとんどない

TAF: KGTB 170454Z 1704/1807 36012KT 8000 -SN BKN007 OVC020 620273 520054 QNH3019INS BECMG 1707/1708 33012KT 9999 NSW SCT050 QNH3052INS BECMG 1715/1716 32006KT 9999 FEW150 QNH3067INS TXM06/1704Z TNM23/1712Z LAST NO AMDS AFT 1705 NEXT 2105

4,000以上の空港の気象観測と天気予報(METAR報とTAF報)

利用可能な観測所は地図上に黄色い丸と赤い丸で示す。

丸の上にカーソルを重ねると観測所名を参照できる。

次にクリックすると気象観測と天気予報を参照できる。

マップの切り替え:黒色「×」印の緑ボタンをクリックして拡大、「-」印の緑ボタンをクリックして縮小、緑色の三角印をクリックして隣りの地図に切り替え


METAR-TAF: